createdAt,value
2022-12-27T00:00:52.123Z,78.18
2022-12-27T00:06:25.579Z,78.56
2022-12-27T00:11:59.949Z,78.74
2022-12-27T00:17:31.484Z,78.84
2022-12-27T00:23:02.760Z,79.02
2022-12-27T00:28:34.659Z,79.04
2022-12-27T00:34:08.622Z,79.17
2022-12-27T00:39:39.565Z,79.18
2022-12-27T00:45:11.421Z,79.42
2022-12-27T00:50:43.905Z,79.20
2022-12-27T00:56:21.296Z,79.14
2022-12-27T01:01:52.717Z,79.31
2022-12-27T01:07:24.853Z,79.39
2022-12-27T01:12:56.656Z,79.44
2022-12-27T01:18:28.429Z,79.19
2022-12-27T01:23:59.868Z,79.43
2022-12-27T01:29:32.341Z,79.44
2022-12-27T01:35:03.422Z,79.40
2022-12-27T01:40:36.955Z,79.41
2022-12-27T01:46:08.102Z,79.28
2022-12-27T01:51:40.243Z,78.96
2022-12-27T01:57:11.672Z,78.90
2022-12-27T02:02:43.354Z,78.84
2022-12-27T02:08:26.007Z,78.63
2022-12-27T02:13:57.687Z,78.12
2022-12-27T02:19:41.057Z,78.09
2022-12-27T02:25:50.697Z,78.38
2022-12-27T02:31:30.012Z,77.88
2022-12-27T02:37:05.521Z,77.72
2022-12-27T02:42:55.087Z,78.05
2022-12-27T02:48:44.822Z,78.04
2022-12-27T02:54:41.998Z,77.68
2022-12-27T03:00:37.762Z,76.91
2022-12-27T03:06:42.900Z,77.00
2022-12-27T03:12:56.928Z,77.18
2022-12-27T03:18:31.320Z,76.46
2022-12-27T03:24:36.323Z,76.66
2022-12-27T03:30:28.318Z,76.43
2022-12-27T03:36:23.590Z,76.20
2022-12-27T03:42:19.021Z,75.98
2022-12-27T03:48:04.281Z,75.90
2022-12-27T03:53:41.308Z,75.76
2022-12-27T03:59:13.764Z,75.34
2022-12-27T04:04:46.641Z,75.24
2022-12-27T04:10:36.355Z,75.32
2022-12-27T04:16:26.379Z,75.77
2022-12-27T04:22:16.436Z,74.91
2022-12-27T04:28:06.765Z,74.92
2022-12-27T04:33:56.593Z,75.29
2022-12-27T04:39:27.961Z,74.91
2022-12-27T04:45:17.824Z,74.18
2022-12-27T04:51:07.768Z,74.61
2022-12-27T04:56:39.110Z,75.42
2022-12-27T05:02:10.676Z,74.15
2022-12-27T05:08:00.988Z,74.40
2022-12-27T05:13:51.174Z,74.18
2022-12-27T05:19:22.479Z,74.54
2022-12-27T05:25:12.382Z,74.27
2022-12-27T05:30:44.629Z,74.23
2022-12-27T05:36:15.899Z,74.43
2022-12-27T05:41:47.017Z,73.99
2022-12-27T05:47:18.030Z,74.46
2022-12-27T05:52:49.260Z,74.55
2022-12-27T05:58:20.237Z,74.23
2022-12-27T06:03:51.658Z,74.77
2022-12-27T06:09:23.033Z,73.96
2022-12-27T06:14:54.233Z,74.00
2022-12-27T06:20:25.644Z,74.60
2022-12-27T06:25:56.701Z,73.87
2022-12-27T06:31:29.479Z,73.84
2022-12-27T06:37:00.732Z,73.48
2022-12-27T06:42:32.016Z,74.43
2022-12-27T06:48:02.924Z,74.30
2022-12-27T06:53:34.280Z,73.58
2022-12-27T06:59:05.861Z,73.85
2022-12-27T07:04:38.143Z,73.56
2022-12-27T07:10:10.253Z,73.24
2022-12-27T07:15:41.267Z,73.07
2022-12-27T07:21:15.150Z,73.32
2022-12-27T07:26:46.104Z,72.92
2022-12-27T07:32:18.062Z,73.01
2022-12-27T07:37:49.322Z,72.37
2022-12-27T07:43:20.887Z,72.57
2022-12-27T07:48:56.529Z,72.09
2022-12-27T07:54:27.994Z,73.04
2022-12-27T07:59:59.144Z,72.40
2022-12-27T08:05:30.563Z,72.63
2022-12-27T08:11:05.453Z,71.96
2022-12-27T08:16:37.422Z,72.57
2022-12-27T08:22:10.087Z,72.02
2022-12-27T08:27:41.328Z,71.24
2022-12-27T08:33:12.802Z,72.35
2022-12-27T08:38:43.959Z,71.18
2022-12-27T08:44:15.228Z,72.18
2022-12-27T08:49:46.383Z,72.06
2022-12-27T08:55:17.432Z,72.12
2022-12-27T09:00:48.350Z,72.72
2022-12-27T09:06:22.287Z,72.44
2022-12-27T09:11:53.505Z,72.95
2022-12-27T09:17:24.676Z,72.83
2022-12-27T09:22:55.482Z,72.37
2022-12-27T09:28:27.168Z,72.49
2022-12-27T09:33:59.003Z,72.57
2022-12-27T09:39:30.180Z,72.58
2022-12-27T09:45:09.141Z,72.97
2022-12-27T09:50:51.973Z,72.74
2022-12-27T09:56:53.981Z,72.77
2022-12-27T10:02:28.648Z,72.56
2022-12-27T10:08:07.971Z,72.44
2022-12-27T10:13:50.382Z,72.61
2022-12-27T10:19:31.425Z,72.57
2022-12-27T10:25:12.345Z,72.69
2022-12-27T10:30:44.355Z,72.71
2022-12-27T10:36:25.612Z,73.21
2022-12-27T10:42:11.202Z,73.00
2022-12-27T10:47:43.476Z,73.23
2022-12-27T10:53:38.661Z,72.83
2022-12-27T10:59:13.846Z,72.53
2022-12-27T11:05:11.179Z,73.00
2022-12-27T11:10:42.918Z,72.56
2022-12-27T11:16:19.113Z,73.01
2022-12-27T11:21:50.717Z,72.70
2022-12-27T11:27:28.418Z,72.59
2022-12-27T11:33:04.779Z,72.89
2022-12-27T11:38:37.562Z,73.20
2022-12-27T11:44:08.721Z,73.09
2022-12-27T11:50:11.674Z,73.29
2022-12-27T11:56:16.636Z,72.98
2022-12-27T12:02:15.658Z,73.00
2022-12-27T12:08:05.407Z,73.04
2022-12-27T12:14:04.407Z,73.16
2022-12-27T12:20:02.683Z,73.19
2022-12-27T12:25:48.534Z,73.20
2022-12-27T12:31:38.175Z,73.00
2022-12-27T12:37:46.790Z,73.06
2022-12-27T12:43:36.066Z,73.31
2022-12-27T12:49:45.931Z,72.88
2022-12-27T12:55:38.141Z,73.25
2022-12-27T13:01:26.318Z,72.60
2022-12-27T13:07:03.523Z,72.72
2022-12-27T13:12:52.448Z,72.60
2022-12-27T13:18:47.814Z,73.11
2022-12-27T13:24:46.465Z,72.72
2022-12-27T13:30:36.523Z,73.15
2022-12-27T13:36:26.823Z,73.03
2022-12-27T13:42:27.754Z,73.07
2022-12-27T13:48:05.035Z,73.53
2022-12-27T13:53:51.079Z,73.00
2022-12-27T13:59:43.654Z,73.08
2022-12-27T14:05:44.777Z,72.84
2022-12-27T14:11:57.707Z,72.99
2022-12-27T14:17:54.619Z,73.43
2022-12-27T14:23:53.415Z,72.98
2022-12-27T14:29:42.553Z,73.01
2022-12-27T14:35:42.795Z,73.38
2022-12-27T14:41:51.843Z,73.37
2022-12-27T14:47:41.350Z,73.14
2022-12-27T14:53:33.442Z,72.81
2022-12-27T14:59:10.296Z,72.72
2022-12-27T15:05:11.782Z,72.94
2022-12-27T15:10:43.122Z,73.03
2022-12-27T15:16:19.957Z,73.19
2022-12-27T15:22:00.271Z,72.94
2022-12-27T15:27:39.103Z,72.89
2022-12-27T15:33:25.417Z,73.01
2022-12-27T15:38:57.486Z,73.36
2022-12-27T15:44:40.539Z,72.52
2022-12-27T15:50:33.302Z,73.03
2022-12-27T15:56:38.265Z,72.98
2022-12-27T16:02:22.868Z,72.70
2022-12-27T16:08:00.237Z,72.81
2022-12-27T16:13:36.071Z,73.21
2022-12-27T16:19:25.404Z,72.92
2022-12-27T16:24:56.915Z,72.75
2022-12-27T16:30:42.381Z,73.28
2022-12-27T16:36:13.787Z,73.15
2022-12-27T16:41:55.164Z,72.70
2022-12-27T16:47:32.434Z,72.58
2022-12-27T16:53:23.507Z,72.65
2022-12-27T16:58:54.812Z,72.70
2022-12-27T17:04:51.963Z,72.89
2022-12-27T17:10:30.855Z,72.89
2022-12-27T17:16:05.139Z,72.22
2022-12-27T17:21:38.337Z,71.86
2022-12-27T17:27:47.347Z,72.18
2022-12-27T17:33:57.737Z,72.80
2022-12-27T17:39:52.113Z,72.40
2022-12-27T17:45:51.072Z,72.54
2022-12-27T17:51:28.680Z,72.59
2022-12-27T17:57:19.666Z,72.60
2022-12-27T18:02:51.697Z,72.53
2022-12-27T18:08:31.096Z,72.73
2022-12-27T18:14:02.458Z,72.61
2022-12-27T18:19:33.747Z,72.21
2022-12-27T18:25:24.380Z,72.40
2022-12-27T18:31:11.768Z,72.15
2022-12-27T18:36:48.886Z,72.62
2022-12-27T18:42:28.757Z,72.74
2022-12-27T18:48:02.005Z,72.48
2022-12-27T18:53:36.300Z,72.68
2022-12-27T18:59:16.537Z,72.40
2022-12-27T19:05:13.514Z,72.52
2022-12-27T19:10:49.791Z,72.06
2022-12-27T19:16:29.475Z,72.69
2022-12-27T19:22:00.808Z,72.09
2022-12-27T19:27:32.096Z,72.17
2022-12-27T19:33:25.873Z,72.78
2022-12-27T19:38:58.757Z,72.59
2022-12-27T19:44:30.599Z,71.78
2022-12-27T19:50:01.805Z,72.03
2022-12-27T19:55:36.377Z,72.41
2022-12-27T20:01:07.541Z,72.44
2022-12-27T20:06:39.276Z,71.79
2022-12-27T20:12:10.312Z,72.26
2022-12-27T20:17:44.926Z,72.46
2022-12-27T20:23:17.843Z,72.19
2022-12-27T20:28:50.048Z,72.41
2022-12-27T20:34:21.263Z,72.36
2022-12-27T20:39:52.320Z,71.88
2022-12-27T20:45:23.895Z,72.33
2022-12-27T20:50:55.097Z,71.87
2022-12-27T20:56:26.568Z,72.10
2022-12-27T21:01:59.094Z,72.00
2022-12-27T21:07:31.041Z,73.17
2022-12-27T21:13:02.520Z,72.05
2022-12-27T21:18:34.350Z,72.30
2022-12-27T21:24:08.310Z,72.85
2022-12-27T21:29:39.438Z,71.83
2022-12-27T21:35:11.146Z,72.19
2022-12-27T21:40:42.096Z,72.22
2022-12-27T21:46:16.376Z,72.23
2022-12-27T21:51:47.658Z,72.52
2022-12-27T21:57:18.887Z,72.21
2022-12-27T22:02:52.718Z,72.54
2022-12-27T22:08:24.029Z,72.64
2022-12-27T22:13:55.211Z,72.49
2022-12-27T22:19:26.934Z,72.59
2022-12-27T22:24:58.077Z,72.52
2022-12-27T22:30:28.987Z,72.57
2022-12-27T22:36:08.996Z,72.23
2022-12-27T22:41:40.358Z,72.70
2022-12-27T22:47:27.930Z,72.82
2022-12-27T22:52:59.883Z,72.83
2022-12-27T22:58:33.791Z,72.82
2022-12-27T23:04:06.566Z,72.74
2022-12-27T23:09:43.045Z,72.38
2022-12-27T23:15:14.951Z,73.08
2022-12-27T23:21:19.255Z,72.82
2022-12-27T23:26:37.947Z,72.49
2022-12-27T23:32:09.061Z,72.97
2022-12-27T23:37:40.094Z,72.58
2022-12-27T23:43:41.960Z,72.68
2022-12-27T23:49:03.670Z,72.65
2022-12-27T23:54:34.589Z,72.44
